createdAt,value
2017-07-12T00:02:24.669Z,1.97
2017-07-12T00:04:52.506Z,1.40
2017-07-12T00:07:20.238Z,2.07
2017-07-12T00:09:48.000Z,1.40
2017-07-12T00:12:15.757Z,1.90
2017-07-12T00:14:43.506Z,1.80
2017-07-12T00:17:11.202Z,1.60
2017-07-12T00:19:38.975Z,2.33
2017-07-12T00:22:06.685Z,1.73
2017-07-12T00:24:34.465Z,1.93
2017-07-12T00:27:02.175Z,1.90
2017-07-12T00:29:29.882Z,2.40
2017-07-12T00:31:57.614Z,2.47
2017-07-12T00:34:25.400Z,1.73
2017-07-12T00:36:53.144Z,1.90
2017-07-12T00:39:20.928Z,1.63
2017-07-12T00:41:48.720Z,1.80
2017-07-12T00:44:16.511Z,2.07
2017-07-12T00:46:44.374Z,1.57
2017-07-12T00:49:12.071Z,1.93
2017-07-12T00:51:39.783Z,2.30
2017-07-12T00:54:07.559Z,1.93
2017-07-12T00:56:35.360Z,1.73
2017-07-12T00:59:03.067Z,1.63
2017-07-12T01:01:30.831Z,2.47
2017-07-12T01:03:58.591Z,1.70
2017-07-12T01:06:26.307Z,2.27
2017-07-12T01:08:54.094Z,2.13
2017-07-12T01:11:21.804Z,2.00
2017-07-12T01:13:49.539Z,1.93
2017-07-12T01:16:17.261Z,2.20
2017-07-12T01:18:45.029Z,2.40
2017-07-12T01:21:12.784Z,2.30
2017-07-12T01:23:40.553Z,2.37
2017-07-12T01:26:08.249Z,2.33
2017-07-12T01:28:36.031Z,1.70
2017-07-12T01:31:03.798Z,1.97
2017-07-12T01:33:31.593Z,2.57
2017-07-12T01:35:59.299Z,2.57
2017-07-12T01:38:27.082Z,2.20
2017-07-12T01:40:54.818Z,1.90
2017-07-12T01:43:22.589Z,1.97
2017-07-12T01:45:50.315Z,2.63
2017-07-12T01:48:18.102Z,2.20
2017-07-12T01:50:45.817Z,1.83
2017-07-12T01:53:13.505Z,1.83
2017-07-12T01:55:41.263Z,2.07
2017-07-12T01:58:08.967Z,2.60
2017-07-12T02:00:36.741Z,2.43
2017-07-12T02:03:04.513Z,1.90
2017-07-12T02:05:32.356Z,1.90
2017-07-12T02:08:00.097Z,2.17
2017-07-12T02:10:27.864Z,1.77
2017-07-12T02:12:55.538Z,1.83
2017-07-12T02:15:23.316Z,2.00
2017-07-12T02:17:51.017Z,2.10
2017-07-12T02:20:18.792Z,1.80
2017-07-12T02:22:46.501Z,2.70
2017-07-12T02:25:14.237Z,1.63
2017-07-12T02:27:41.937Z,1.27
2017-07-12T02:30:09.720Z,1.60
2017-07-12T02:32:37.431Z,1.30
2017-07-12T02:35:05.173Z,2.07
2017-07-12T02:37:32.874Z,1.67
2017-07-12T02:40:00.635Z,2.20
2017-07-12T02:42:28.333Z,2.73
2017-07-12T02:44:56.127Z,1.70
2017-07-12T02:47:23.899Z,1.47
2017-07-12T02:49:51.600Z,1.63
2017-07-12T02:52:19.523Z,2.17
2017-07-12T02:54:47.228Z,2.57
2017-07-12T02:57:14.941Z,2.60
2017-07-12T02:59:42.666Z,2.17
2017-07-12T03:02:10.448Z,1.60
2017-07-12T03:04:38.155Z,2.07
2017-07-12T03:07:05.841Z,1.70
2017-07-12T03:09:33.572Z,1.70
2017-07-12T03:12:01.346Z,2.70
2017-07-12T03:14:29.079Z,1.97
2017-07-12T03:16:56.801Z,2.30
2017-07-12T03:19:24.554Z,2.00
2017-07-12T03:21:52.403Z,2.00
2017-07-12T03:24:20.165Z,1.53
2017-07-12T03:26:47.989Z,1.93
2017-07-12T03:29:15.702Z,1.67
2017-07-12T03:31:43.411Z,2.30
2017-07-12T03:34:11.180Z,2.00
2017-07-12T03:36:38.910Z,2.17
2017-07-12T03:39:06.653Z,2.17
2017-07-12T03:41:35.015Z,2.20
2017-07-12T03:44:02.767Z,2.00
2017-07-12T03:46:30.466Z,2.20
2017-07-12T03:48:58.196Z,1.40
2017-07-12T03:51:25.938Z,2.30
2017-07-12T03:53:53.688Z,2.50
2017-07-12T03:56:21.403Z,2.17
2017-07-12T03:58:49.182Z,2.07
2017-07-12T04:01:16.883Z,2.17
2017-07-12T04:03:44.800Z,2.73
2017-07-12T04:06:12.544Z,1.67
2017-07-12T04:08:40.300Z,1.60
2017-07-12T04:11:08.086Z,2.30
2017-07-12T04:13:35.830Z,2.20
2017-07-12T04:16:03.600Z,4.03
2017-07-12T04:18:31.308Z,2.70
2017-07-12T04:20:59.091Z,2.10
2017-07-12T04:23:26.843Z,1.90
2017-07-12T04:25:54.583Z,2.00
2017-07-12T04:28:22.293Z,2.00
2017-07-12T04:30:50.078Z,2.67
2017-07-12T04:33:18.545Z,2.30
2017-07-12T04:35:46.240Z,3.87
2017-07-12T04:38:13.986Z,1.83
2017-07-12T04:40:41.805Z,1.70
2017-07-12T04:43:09.570Z,2.17
2017-07-12T04:45:37.255Z,2.60
2017-07-12T04:48:04.971Z,2.67
2017-07-12T04:50:32.705Z,1.80
2017-07-12T04:53:00.393Z,2.00
2017-07-12T04:55:28.136Z,2.73
2017-07-12T04:57:55.877Z,1.90
2017-07-12T05:00:23.582Z,2.00
2017-07-12T05:02:51.345Z,2.20
2017-07-12T05:05:19.061Z,2.07
2017-07-12T05:07:46.852Z,1.80
2017-07-12T05:10:14.718Z,1.27
2017-07-12T05:12:42.418Z,1.43
2017-07-12T05:15:10.197Z,1.77
2017-07-12T05:17:38.013Z,1.60
2017-07-12T05:20:05.740Z,1.53
2017-07-12T05:22:33.515Z,1.57
2017-07-12T05:25:01.263Z,1.60
2017-07-12T05:27:29.032Z,1.73
2017-07-12T05:29:56.796Z,1.23
2017-07-12T05:32:24.527Z,1.70
2017-07-12T05:34:52.328Z,1.90
2017-07-12T05:37:20.027Z,2.30
2017-07-12T05:39:47.755Z,1.97
2017-07-12T05:42:15.460Z,1.70
2017-07-12T05:44:43.285Z,2.40
2017-07-12T05:47:11.030Z,2.43
2017-07-12T05:49:38.726Z,4.00
2017-07-12T05:52:06.511Z,3.37
2017-07-12T05:54:34.265Z,2.87
2017-07-12T05:57:01.966Z,3.10
2017-07-12T05:59:29.745Z,2.10
2017-07-12T06:01:57.503Z,2.37
2017-07-12T06:04:25.214Z,2.13
2017-07-12T06:06:53.005Z,1.90
2017-07-12T06:09:20.874Z,1.90
2017-07-12T06:11:48.675Z,1.60
2017-07-12T06:14:16.473Z,1.33
2017-07-12T06:16:44.266Z,2.07
2017-07-12T06:19:11.985Z,1.90
2017-07-12T06:21:39.828Z,1.50
2017-07-12T06:24:07.700Z,1.43
2017-07-12T06:26:36.266Z,1.53
2017-07-12T06:29:03.995Z,1.53
2017-07-12T06:31:31.843Z,1.50
2017-07-12T06:33:59.719Z,1.23
2017-07-12T06:36:27.493Z,1.50
2017-07-12T06:38:55.870Z,1.30
2017-07-12T06:41:24.346Z,1.63
2017-07-12T06:43:52.742Z,2.03
2017-07-12T06:46:20.560Z,1.47
2017-07-12T06:48:49.271Z,1.20
2017-07-12T06:51:17.804Z,1.50
2017-07-12T06:53:46.533Z,1.47
2017-07-12T06:56:14.642Z,1.93
2017-07-12T06:58:42.655Z,1.77
2017-07-12T07:01:11.922Z,1.87
2017-07-12T07:03:39.640Z,1.60
2017-07-12T07:06:07.419Z,1.40
2017-07-12T07:08:35.213Z,1.47
2017-07-12T07:11:03.063Z,1.73
2017-07-12T07:13:30.870Z,1.50
2017-07-12T07:15:58.660Z,1.90
2017-07-12T07:18:26.448Z,1.40
2017-07-12T07:20:54.250Z,1.70
2017-07-12T07:23:22.090Z,1.50
2017-07-12T07:25:49.812Z,1.67
2017-07-12T07:28:17.567Z,1.67
2017-07-12T07:30:45.371Z,1.90
2017-07-12T07:33:13.110Z,1.60
2017-07-12T07:35:40.813Z,1.90
2017-07-12T07:38:08.594Z,1.90
2017-07-12T07:40:36.368Z,1.97
2017-07-12T07:43:04.133Z,1.40
2017-07-12T07:45:31.951Z,1.50
2017-07-12T07:47:59.660Z,1.33
2017-07-12T07:50:27.470Z,1.70
2017-07-12T07:52:55.247Z,1.50
2017-07-12T07:55:23.743Z,1.73
2017-07-12T07:57:51.527Z,2.13
2017-07-12T08:00:19.305Z,1.60
2017-07-12T08:02:47.062Z,1.20
2017-07-12T08:05:14.859Z,1.73
2017-07-12T08:07:42.651Z,1.80
2017-07-12T08:10:10.468Z,1.30
2017-07-12T08:12:38.296Z,1.83
2017-07-12T08:15:06.029Z,1.57
2017-07-12T08:17:33.846Z,2.00
2017-07-12T08:20:01.690Z,1.03
2017-07-12T08:22:29.479Z,1.43
2017-07-12T08:24:57.257Z,1.73
2017-07-12T08:27:24.990Z,1.80
2017-07-12T08:29:52.763Z,2.50
2017-07-12T08:32:21.644Z,1.40
2017-07-12T08:34:49.409Z,1.33
2017-07-12T08:37:17.181Z,1.53
2017-07-12T08:39:44.957Z,1.23
2017-07-12T08:42:13.705Z,1.57
2017-07-12T08:44:41.467Z,1.27
2017-07-12T08:47:09.295Z,1.10
2017-07-12T08:49:37.039Z,1.07
2017-07-12T08:52:05.696Z,1.40
2017-07-12T08:54:33.403Z,1.47
2017-07-12T08:57:01.157Z,1.50
2017-07-12T08:59:28.920Z,1.27
2017-07-12T09:01:56.741Z,1.43
2017-07-12T09:04:24.518Z,1.67
2017-07-12T09:06:52.330Z,1.47
2017-07-12T09:09:20.053Z,2.23
2017-07-12T09:11:47.874Z,1.40
2017-07-12T09:14:15.679Z,1.37
2017-07-12T09:16:44.044Z,1.63
2017-07-12T09:19:11.861Z,1.47
2017-07-12T09:21:39.573Z,1.67
2017-07-12T09:24:07.404Z,1.13
2017-07-12T09:33:58.336Z,1.47
2017-07-12T09:36:26.110Z,1.33
2017-07-12T09:38:53.983Z,1.50
2017-07-12T09:41:22.514Z,1.60
2017-07-12T09:43:51.600Z,1.67
2017-07-12T09:46:20.566Z,1.20
2017-07-12T09:48:48.256Z,1.40
2017-07-12T09:51:16.080Z,1.17
2017-07-12T09:53:43.813Z,1.23
2017-07-12T09:56:12.387Z,1.30
2017-07-12T09:58:40.205Z,1.20
2017-07-12T10:01:07.949Z,1.10
2017-07-12T10:03:35.656Z,1.10
2017-07-12T10:06:03.476Z,1.30
2017-07-12T10:08:31.251Z,1.00
2017-07-12T10:10:58.971Z,1.03
2017-07-12T10:13:26.732Z,1.67
2017-07-12T10:15:55.441Z,1.17
2017-07-12T10:18:23.198Z,0.93
2017-07-12T10:20:50.989Z,1.20
2017-07-12T10:23:19.904Z,1.30
2017-07-12T10:25:47.677Z,1.63
2017-07-12T10:28:15.508Z,1.73
2017-07-12T10:30:43.270Z,1.43
2017-07-12T10:33:11.055Z,1.47
2017-07-12T10:35:39.881Z,1.37
2017-07-12T10:38:07.604Z,1.20
2017-07-12T10:40:35.429Z,1.80
2017-07-12T10:43:03.709Z,1.70
2017-07-12T10:45:31.419Z,1.20
2017-07-12T10:47:59.248Z,1.50
2017-07-12T10:50:27.048Z,1.10
2017-07-12T10:52:54.866Z,1.53
2017-07-12T10:55:23.494Z,1.20
2017-07-12T10:57:51.271Z,1.83
2017-07-12T11:00:19.050Z,1.97
2017-07-12T11:02:46.788Z,1.30
2017-07-12T11:05:14.596Z,1.27
2017-07-12T11:07:42.315Z,1.23
2017-07-12T11:10:10.166Z,1.40
2017-07-12T11:12:40.133Z,1.23
2017-07-12T11:15:07.935Z,1.47
2017-07-12T11:17:36.571Z,1.60
2017-07-12T11:20:04.356Z,1.70
2017-07-12T11:22:32.058Z,1.83
2017-07-12T11:24:59.842Z,1.30
2017-07-12T11:27:27.552Z,1.10
2017-07-12T11:29:55.434Z,1.70
2017-07-12T11:32:23.245Z,1.30
2017-07-12T11:34:50.963Z,1.13
2017-07-12T11:37:18.762Z,1.53
2017-07-12T11:39:46.501Z,1.70
2017-07-12T11:42:14.281Z,1.23
2017-07-12T11:44:41.990Z,1.30
2017-07-12T11:47:09.866Z,1.00
2017-07-12T11:49:37.660Z,1.50
2017-07-12T11:52:05.381Z,1.40
2017-07-12T11:54:33.108Z,1.90
2017-07-12T11:57:00.955Z,1.50
2017-07-12T11:59:28.738Z,1.03
2017-07-12T12:01:56.515Z,1.30
2017-07-12T12:04:24.343Z,1.30
2017-07-12T12:06:52.053Z,1.30
2017-07-12T12:09:19.882Z,1.17
2017-07-12T12:11:47.624Z,1.47
2017-07-12T12:14:15.390Z,1.30
2017-07-12T12:16:43.109Z,1.30
2017-07-12T12:19:10.914Z,1.30
2017-07-12T12:21:38.641Z,1.10
2017-07-12T12:24:06.471Z,1.13
2017-07-12T12:26:34.230Z,1.10
2017-07-12T12:29:02.109Z,1.80
2017-07-12T12:31:29.891Z,1.73
2017-07-12T12:33:57.655Z,1.07
2017-07-12T12:36:25.372Z,1.23
2017-07-12T12:38:53.175Z,1.40
2017-07-12T12:41:20.988Z,1.23
2017-07-12T12:43:48.711Z,1.80
2017-07-12T12:46:16.397Z,1.60
2017-07-12T12:48:44.200Z,1.00
2017-07-12T12:51:11.984Z,0.77
2017-07-12T12:53:39.888Z,0.90
2017-07-12T12:56:07.658Z,1.03
2017-07-12T12:58:35.532Z,0.97
2017-07-12T13:01:03.277Z,1.40
2017-07-12T13:03:31.070Z,1.10
2017-07-12T13:05:58.846Z,1.07
2017-07-12T13:08:26.593Z,0.90
2017-07-12T13:10:54.366Z,0.90
2017-07-12T13:13:22.156Z,1.77
2017-07-12T13:15:49.916Z,1.10
2017-07-12T13:18:17.822Z,1.20
2017-07-12T13:20:45.578Z,0.70
2017-07-12T13:23:13.323Z,1.30
2017-07-12T13:25:41.207Z,0.70
2017-07-12T13:28:08.953Z,1.13
2017-07-12T13:30:36.700Z,1.30
2017-07-12T13:33:04.520Z,0.80
2017-07-12T13:35:32.236Z,1.23
2017-07-12T13:38:00.069Z,1.40
2017-07-12T13:40:28.036Z,0.90
2017-07-12T13:42:55.859Z,1.07
2017-07-12T13:45:23.829Z,1.00
2017-07-12T13:47:51.537Z,1.10
2017-07-12T13:50:19.311Z,0.90
2017-07-12T13:52:47.112Z,1.03
2017-07-12T13:55:14.884Z,0.90
2017-07-12T13:57:42.669Z,0.97
2017-07-12T14:00:10.424Z,0.80
2017-07-12T14:02:38.243Z,0.73
2017-07-12T14:05:05.961Z,0.60
2017-07-12T14:07:33.685Z,1.37
2017-07-12T14:10:01.482Z,0.60
2017-07-12T14:12:29.264Z,1.00
2017-07-12T14:14:57.011Z,0.90
2017-07-12T14:17:24.895Z,1.00
2017-07-12T14:19:53.485Z,0.80
2017-07-12T14:22:21.256Z,0.87
2017-07-12T14:24:49.051Z,1.10
2017-07-12T14:27:16.890Z,1.03
2017-07-12T14:29:44.717Z,1.20
2017-07-12T14:32:13.675Z,0.70
2017-07-12T14:34:41.479Z,1.00
2017-07-12T14:37:09.896Z,1.30
2017-07-12T14:39:38.143Z,1.20
2017-07-12T14:42:05.941Z,0.97
2017-07-12T14:44:33.700Z,1.43
2017-07-12T14:47:01.542Z,1.17
2017-07-12T14:49:30.457Z,1.40
2017-07-12T14:51:58.248Z,1.27
2017-07-12T14:54:27.114Z,1.20
2017-07-12T14:56:54.994Z,1.47
2017-07-12T14:59:22.820Z,1.70
2017-07-12T15:01:50.520Z,1.43
2017-07-12T15:04:18.423Z,1.00
2017-07-12T15:06:46.202Z,1.73
2017-07-12T15:09:14.280Z,1.13
2017-07-12T15:11:42.030Z,1.53
2017-07-12T15:14:09.854Z,2.13
2017-07-12T15:16:37.611Z,2.07
2017-07-12T15:19:05.334Z,1.80
2017-07-12T15:21:33.117Z,1.67
2017-07-12T15:24:00.932Z,1.37
2017-07-12T15:26:28.729Z,1.40
2017-07-12T15:28:56.760Z,2.50
2017-07-12T15:31:24.496Z,2.10
2017-07-12T15:33:52.293Z,1.53
2017-07-12T15:36:20.081Z,2.10
2017-07-12T15:38:47.900Z,0.93
2017-07-12T15:41:15.763Z,1.50
2017-07-12T15:43:43.520Z,1.40
2017-07-12T15:46:11.362Z,1.40
2017-07-12T15:48:39.185Z,1.53
2017-07-12T15:51:06.937Z,1.60
2017-07-12T15:53:34.726Z,1.07
2017-07-12T15:56:02.566Z,1.10
2017-07-12T15:58:30.333Z,1.27
2017-07-12T16:00:58.115Z,0.97
2017-07-12T16:03:25.935Z,1.57
2017-07-12T16:05:53.699Z,1.63
2017-07-12T16:08:21.581Z,1.90
2017-07-12T16:10:49.401Z,1.80
2017-07-12T16:13:17.258Z,2.00
2017-07-12T16:15:45.087Z,2.30
2017-07-12T16:18:13.119Z,1.37
2017-07-12T16:20:42.029Z,2.50
2017-07-12T16:23:09.784Z,1.93
2017-07-12T16:25:37.553Z,2.10
2017-07-12T16:28:05.338Z,1.30
2017-07-12T16:30:33.293Z,1.67
2017-07-12T16:33:01.108Z,1.90
2017-07-12T16:35:28.946Z,1.70
2017-07-12T16:37:56.756Z,1.80
2017-07-12T16:40:24.502Z,2.30
2017-07-12T16:42:52.272Z,2.10
2017-07-12T16:45:20.015Z,2.60
2017-07-12T16:47:47.776Z,1.73
2017-07-12T16:50:15.504Z,2.30
2017-07-12T16:52:43.295Z,1.73
2017-07-12T16:55:11.050Z,2.10
2017-07-12T16:57:38.859Z,2.50
2017-07-12T17:00:06.666Z,2.00
2017-07-12T17:02:34.418Z,2.30
2017-07-12T17:05:02.156Z,1.50
2017-07-12T17:07:30.078Z,1.80
2017-07-12T17:09:57.824Z,2.07
2017-07-12T17:12:25.629Z,1.77
2017-07-12T17:14:53.398Z,2.30
2017-07-12T17:17:21.165Z,1.80
2017-07-12T17:19:48.938Z,2.20
2017-07-12T17:22:16.725Z,1.87
2017-07-12T17:24:44.452Z,2.40
2017-07-12T17:27:12.227Z,2.63
2017-07-12T17:29:40.094Z,2.20
2017-07-12T17:32:07.857Z,2.53
2017-07-12T17:34:35.623Z,2.20
2017-07-12T17:37:04.041Z,2.20
2017-07-12T17:39:31.913Z,3.10
2017-07-12T17:41:59.888Z,1.83
2017-07-12T17:44:27.627Z,1.93
2017-07-12T17:46:55.402Z,2.20
2017-07-12T17:49:23.174Z,2.13
2017-07-12T17:54:24.745Z,2.10
2017-07-12T17:56:52.475Z,2.10
2017-07-12T17:59:20.384Z,2.37
2017-07-12T18:01:48.193Z,2.97
2017-07-12T18:04:15.886Z,1.77
2017-07-12T18:06:44.184Z,1.60
2017-07-12T18:09:11.991Z,2.00
2017-07-12T18:11:39.809Z,1.70
2017-07-12T18:14:07.817Z,1.57
2017-07-12T18:16:37.337Z,2.57
2017-07-12T18:19:05.316Z,2.30
2017-07-12T18:21:33.034Z,1.90
2017-07-12T18:24:00.801Z,2.00
2017-07-12T18:26:28.598Z,2.20
2017-07-12T18:28:57.750Z,2.90
2017-07-12T18:31:25.571Z,2.37
2017-07-12T18:33:53.348Z,2.10
2017-07-12T18:36:21.120Z,2.40
2017-07-12T18:38:48.950Z,2.57
2017-07-12T18:41:16.748Z,3.03
2017-07-12T18:43:44.831Z,2.37
2017-07-12T18:46:12.700Z,2.10
2017-07-12T18:48:41.094Z,2.70
2017-07-12T18:51:08.900Z,2.50
2017-07-12T18:53:36.836Z,2.10
2017-07-12T18:56:04.598Z,2.83
2017-07-12T18:58:32.494Z,2.73
2017-07-12T19:01:00.360Z,2.57
2017-07-12T19:03:29.294Z,3.07
2017-07-12T19:05:58.435Z,3.00
2017-07-12T19:08:26.416Z,2.87
2017-07-12T19:10:54.202Z,2.40
2017-07-12T19:13:22.122Z,2.90
2017-07-12T19:15:49.862Z,2.73
2017-07-12T19:18:18.188Z,2.70
2017-07-12T19:20:46.014Z,2.83
2017-07-12T19:23:13.969Z,2.43
2017-07-12T19:25:41.835Z,1.80
2017-07-12T19:28:09.672Z,2.80
2017-07-12T19:30:37.527Z,2.30
2017-07-12T19:33:06.572Z,2.30
2017-07-12T19:35:34.660Z,2.17
2017-07-12T19:38:03.970Z,2.40
2017-07-12T19:40:32.365Z,3.03
2017-07-12T19:43:02.149Z,1.90
2017-07-12T19:45:30.143Z,2.20
2017-07-12T19:47:58.474Z,2.30
2017-07-12T19:50:26.699Z,1.90
2017-07-12T19:52:54.590Z,2.60
2017-07-12T19:55:22.467Z,1.90
2017-07-12T19:57:50.271Z,2.57
2017-07-12T20:00:18.717Z,2.33
2017-07-12T20:02:46.606Z,3.00
2017-07-12T20:05:14.430Z,2.43
2017-07-12T20:07:42.319Z,2.90
2017-07-12T20:10:10.086Z,2.63
2017-07-12T20:12:37.971Z,2.40
2017-07-12T20:15:06.606Z,2.63
2017-07-12T20:17:35.440Z,2.40
2017-07-12T20:20:03.292Z,2.77
2017-07-12T20:22:31.005Z,2.60
2017-07-12T20:24:58.848Z,2.97
2017-07-12T20:27:26.694Z,3.30
2017-07-12T20:29:54.598Z,2.83
2017-07-12T20:32:22.710Z,3.13
2017-07-12T20:34:50.540Z,2.67
2017-07-12T20:37:18.929Z,2.63
2017-07-12T20:39:46.763Z,2.40
2017-07-12T20:42:14.737Z,2.17
2017-07-12T20:44:42.569Z,3.20
2017-07-12T20:47:10.349Z,2.77
2017-07-12T20:49:38.160Z,2.63
2017-07-12T20:52:06.182Z,2.30
2017-07-12T20:54:34.212Z,3.77
2017-07-12T20:57:02.015Z,2.83
2017-07-12T20:59:29.723Z,3.17
2017-07-12T21:01:57.663Z,2.43
2017-07-12T21:04:26.351Z,2.60
2017-07-12T21:06:54.128Z,2.70
2017-07-12T21:09:21.853Z,2.87
2017-07-12T21:11:49.617Z,2.50
2017-07-12T21:14:17.454Z,3.23
2017-07-12T21:16:45.182Z,2.27
2017-07-12T21:19:12.991Z,2.30
2017-07-12T21:21:40.760Z,2.43
2017-07-12T21:24:08.522Z,2.00
2017-07-12T21:26:36.354Z,2.70
2017-07-12T21:29:04.206Z,1.90
2017-07-12T21:31:31.979Z,2.60
2017-07-12T21:33:59.786Z,3.30
2017-07-12T21:36:27.593Z,2.00
2017-07-12T21:38:55.353Z,2.30
2017-07-12T21:41:23.092Z,1.90
2017-07-12T21:43:50.898Z,2.07
2017-07-12T21:46:18.695Z,1.60
2017-07-12T21:48:46.539Z,2.10
2017-07-12T21:51:14.284Z,2.27
2017-07-12T21:53:59.461Z,1.87
2017-07-12T21:56:44.520Z,1.47
2017-07-12T21:59:29.623Z,2.20
2017-07-12T22:02:14.552Z,1.93
2017-07-12T22:04:59.517Z,1.40
2017-07-12T22:07:44.537Z,1.80
2017-07-12T22:10:29.552Z,1.73
2017-07-12T22:13:14.539Z,1.97
2017-07-12T22:15:59.636Z,1.70
2017-07-12T22:18:44.606Z,1.43
2017-07-12T22:21:29.728Z,1.50
2017-07-12T22:24:14.734Z,1.83
2017-07-12T22:26:59.821Z,1.70
2017-07-12T22:29:44.861Z,2.67
2017-07-12T22:32:29.952Z,2.20
2017-07-12T22:35:14.951Z,1.53
2017-07-12T22:37:48.283Z,1.67
2017-07-12T22:40:21.570Z,1.53
2017-07-12T22:42:54.793Z,1.17
2017-07-12T22:45:22.561Z,1.57
2017-07-12T22:47:50.368Z,1.20
2017-07-12T22:50:18.103Z,1.73
2017-07-12T22:52:45.879Z,1.40
2017-07-12T22:55:13.647Z,1.40
2017-07-12T22:57:41.409Z,1.70
2017-07-12T23:00:09.195Z,1.30
2017-07-12T23:02:36.966Z,1.00
2017-07-12T23:05:04.759Z,1.13
2017-07-12T23:07:33.073Z,1.23
2017-07-12T23:10:00.792Z,1.20
2017-07-12T23:12:28.490Z,1.37
2017-07-12T23:14:56.986Z,0.90
2017-07-12T23:17:24.763Z,1.67
2017-07-12T23:19:52.507Z,1.20
2017-07-12T23:22:22.193Z,1.10
2017-07-12T23:24:49.998Z,1.23
2017-07-12T23:27:17.741Z,1.10
2017-07-12T23:29:45.513Z,0.70
2017-07-12T23:32:14.117Z,0.80
2017-07-12T23:34:41.909Z,0.73
2017-07-12T23:37:09.687Z,0.70
2017-07-12T23:39:37.445Z,0.57
2017-07-12T23:42:05.242Z,0.70
2017-07-12T23:44:33.045Z,0.60
2017-07-12T23:47:00.787Z,0.70
2017-07-12T23:49:28.516Z,0.67
2017-07-12T23:51:56.479Z,1.10
2017-07-12T23:54:24.260Z,0.60
2017-07-12T23:56:52.054Z,0.90
2017-07-12T23:59:19.837Z,0.80
